createdAt,value
2019-02-19T00:01:24.789Z,3.30
2019-02-19T00:03:55.330Z,3.40
2019-02-19T00:06:25.843Z,3.30
2019-02-19T00:08:56.296Z,3.30
2019-02-19T00:11:26.877Z,3.20
2019-02-19T00:13:57.419Z,3.10
2019-02-19T00:16:28.056Z,3.10
2019-02-19T00:18:58.579Z,3.30
2019-02-19T00:21:29.364Z,3.30
2019-02-19T00:23:59.815Z,3.30
2019-02-19T00:26:30.352Z,3.30
2019-02-19T00:29:00.978Z,3.10
2019-02-19T00:31:31.899Z,3.10
2019-02-19T00:34:02.440Z,3.00
2019-02-19T00:36:33.359Z,2.90
2019-02-19T00:39:04.861Z,2.80
2019-02-19T00:41:35.718Z,2.80
2019-02-19T00:44:06.298Z,2.80
2019-02-19T00:46:36.863Z,2.70
2019-02-19T00:49:07.580Z,2.70
2019-02-19T00:51:38.153Z,2.60
2019-02-19T00:54:08.728Z,2.60
2019-02-19T00:56:39.951Z,2.60
2019-02-19T00:59:10.503Z,2.60
2019-02-19T01:01:41.048Z,2.60
2019-02-19T01:04:11.976Z,2.70
2019-02-19T01:06:42.541Z,2.80
2019-02-19T01:09:13.197Z,2.90
2019-02-19T01:11:44.138Z,2.90
2019-02-19T01:14:14.671Z,2.90
2019-02-19T01:16:45.272Z,3.10
2019-02-19T01:19:16.030Z,3.80
2019-02-19T01:21:46.917Z,4.10
2019-02-19T01:24:17.535Z,3.90
2019-02-19T01:26:48.088Z,3.60
2019-02-19T01:29:18.696Z,3.90
2019-02-19T01:31:49.238Z,4.70
2019-02-19T01:34:19.958Z,4.90
2019-02-19T01:36:50.824Z,4.80
2019-02-19T01:39:21.467Z,5.10
2019-02-19T01:41:52.331Z,4.90
2019-02-19T01:44:22.889Z,4.90
2019-02-19T01:46:53.381Z,5.50
2019-02-19T01:49:23.951Z,5.80
2019-02-19T01:51:54.494Z,5.30
2019-02-19T01:54:25.097Z,5.00
2019-02-19T01:56:55.660Z,4.70
2019-02-19T01:59:26.647Z,4.60
2019-02-19T02:01:57.100Z,4.10
2019-02-19T02:04:27.747Z,3.60
2019-02-19T02:06:58.275Z,3.80
2019-02-19T02:09:28.820Z,3.60
2019-02-19T02:11:59.366Z,3.70
2019-02-19T02:14:29.881Z,4.30
2019-02-19T02:17:00.354Z,4.70
2019-02-19T02:19:30.915Z,5.30
2019-02-19T02:22:01.541Z,5.30
2019-02-19T02:24:32.333Z,5.50
2019-02-19T02:27:02.810Z,5.70
2019-02-19T02:29:33.338Z,5.70
2019-02-19T02:32:04.416Z,5.70
2019-02-19T02:34:34.875Z,5.90
2019-02-19T02:37:05.425Z,5.80
2019-02-19T02:39:36.277Z,5.90
2019-02-19T02:42:06.817Z,5.70
2019-02-19T02:44:37.358Z,5.50
2019-02-19T02:47:07.946Z,5.20
2019-02-19T02:49:38.478Z,5.40
2019-02-19T02:52:09.224Z,5.30
2019-02-19T02:54:39.744Z,5.20
2019-02-19T02:57:10.371Z,5.20
2019-02-19T02:59:40.902Z,5.00
2019-02-19T03:02:11.444Z,4.90
2019-02-19T03:04:42.689Z,4.90
2019-02-19T03:07:27.313Z,4.80
2019-02-19T03:09:57.750Z,4.60
2019-02-19T03:12:28.559Z,4.60
2019-02-19T03:14:59.131Z,4.50
2019-02-19T03:17:29.674Z,4.50
2019-02-19T03:20:00.545Z,4.10
2019-02-19T03:22:31.083Z,3.70
2019-02-19T03:25:01.736Z,3.60
2019-02-19T03:27:32.311Z,4.00
2019-02-19T03:30:02.861Z,4.30
2019-02-19T03:32:33.290Z,4.60
2019-02-19T03:35:03.842Z,5.10
2019-02-19T03:37:34.781Z,5.30
2019-02-19T03:40:07.521Z,5.20
2019-02-19T03:42:38.115Z,5.20
2019-02-19T03:45:10.671Z,5.10
2019-02-19T03:47:41.142Z,5.50
2019-02-19T03:50:11.699Z,5.40
2019-02-19T03:52:42.196Z,5.40
2019-02-19T03:55:12.648Z,5.40
2019-02-19T03:57:43.543Z,5.50
2019-02-19T04:00:14.755Z,5.50
2019-02-19T04:02:45.424Z,5.50
2019-02-19T04:05:16.194Z,5.60
2019-02-19T04:07:46.716Z,5.50
2019-02-19T04:10:17.672Z,5.60
2019-02-19T04:12:48.193Z,5.60
2019-02-19T04:15:18.780Z,5.70
2019-02-19T04:17:49.241Z,5.70
2019-02-19T04:20:19.834Z,5.60
2019-02-19T04:22:50.580Z,5.60
2019-02-19T04:25:21.116Z,5.50
2019-02-19T04:27:51.809Z,5.50
2019-02-19T04:30:22.276Z,5.50
2019-02-19T04:32:52.825Z,5.50
2019-02-19T04:35:23.337Z,5.50
2019-02-19T04:37:54.425Z,5.80
2019-02-19T04:40:25.721Z,5.70
2019-02-19T04:42:56.342Z,5.80
2019-02-19T04:45:27.228Z,5.80
2019-02-19T04:47:57.732Z,5.80
2019-02-19T04:50:28.254Z,5.90
2019-02-19T04:52:58.862Z,5.90
2019-02-19T04:55:29.614Z,5.90
2019-02-19T04:58:00.233Z,5.80
2019-02-19T05:00:30.689Z,5.80
2019-02-19T05:03:01.294Z,5.80
2019-02-19T05:05:32.163Z,5.80
2019-02-19T05:08:02.684Z,5.80
2019-02-19T05:10:33.218Z,5.90
2019-02-19T05:13:03.816Z,5.90
2019-02-19T05:15:34.336Z,5.90
2019-02-19T05:18:05.335Z,5.90
2019-02-19T05:20:35.861Z,5.90
2019-02-19T05:23:07.518Z,5.90
2019-02-19T05:25:38.213Z,5.90
2019-02-19T05:28:09.105Z,5.80
2019-02-19T05:30:39.577Z,5.80
2019-02-19T05:33:10.121Z,5.90
2019-02-19T05:35:40.702Z,5.80
2019-02-19T05:38:11.175Z,5.80
2019-02-19T05:40:41.691Z,5.80
2019-02-19T05:43:12.228Z,5.70
2019-02-19T05:45:42.685Z,5.80
2019-02-19T05:48:13.939Z,5.80
2019-02-19T05:50:44.482Z,5.90
2019-02-19T05:53:15.143Z,5.90
2019-02-19T05:55:45.676Z,5.90
2019-02-19T05:58:16.297Z,5.80
2019-02-19T06:00:47.200Z,5.70
2019-02-19T06:03:17.691Z,5.80
2019-02-19T06:05:48.157Z,5.80
2019-02-19T06:08:18.718Z,5.70
2019-02-19T06:10:49.249Z,5.70
2019-02-19T06:13:20.107Z,5.70
2019-02-19T06:15:50.654Z,5.70
2019-02-19T06:18:21.239Z,5.70
2019-02-19T06:20:51.693Z,5.70
2019-02-19T06:23:22.192Z,5.70
2019-02-19T06:25:52.739Z,5.70
2019-02-19T06:28:23.193Z,5.70
2019-02-19T06:30:53.808Z,5.80
2019-02-19T06:33:24.381Z,5.70
2019-02-19T06:35:54.951Z,5.80
2019-02-19T06:38:25.480Z,5.80
2019-02-19T06:40:56.478Z,5.80
2019-02-19T06:43:27.239Z,5.90
2019-02-19T06:45:58.195Z,6.00
2019-02-19T06:48:28.727Z,6.00
2019-02-19T06:51:00.029Z,6.10
2019-02-19T06:53:30.950Z,6.10
2019-02-19T06:56:01.526Z,6.10
2019-02-19T06:58:32.183Z,6.10
2019-02-19T07:01:02.797Z,6.10
2019-02-19T07:03:58.399Z,6.10
2019-02-19T07:06:30.662Z,6.10
2019-02-19T07:09:01.197Z,6.20
2019-02-19T07:11:31.732Z,6.30
2019-02-19T07:14:02.638Z,6.30
2019-02-19T07:16:33.109Z,6.30
2019-02-19T07:19:03.641Z,6.30
2019-02-19T07:21:34.192Z,6.30
2019-02-19T07:24:04.862Z,6.40
2019-02-19T07:26:35.436Z,6.50
2019-02-19T07:29:05.949Z,6.50
2019-02-19T07:31:36.578Z,6.50
2019-02-19T07:34:07.106Z,6.50
2019-02-19T07:36:37.777Z,6.60
2019-02-19T07:39:08.335Z,6.60
2019-02-19T07:41:38.905Z,6.70
2019-02-19T07:44:09.427Z,6.70
2019-02-19T07:46:40.070Z,6.80
2019-02-19T07:49:10.846Z,6.80
2019-02-19T07:51:42.691Z,6.80
2019-02-19T07:54:13.378Z,6.80
2019-02-19T07:56:43.894Z,6.80
2019-02-19T07:59:23.107Z,6.90
2019-02-19T08:01:52.818Z,6.90
2019-02-19T08:04:23.681Z,6.90
2019-02-19T08:06:54.199Z,7.00
2019-02-19T08:09:24.757Z,7.10
2019-02-19T08:11:55.237Z,7.20
2019-02-19T08:14:25.798Z,7.20
2019-02-19T08:16:56.675Z,7.20
2019-02-19T08:19:27.255Z,7.30
2019-02-19T08:21:57.732Z,7.40
2019-02-19T08:24:28.245Z,7.40
2019-02-19T08:26:58.854Z,7.40
2019-02-19T08:29:29.959Z,7.40
2019-02-19T08:32:00.527Z,7.40
2019-02-19T08:34:31.085Z,7.40
2019-02-19T08:37:01.693Z,7.50
2019-02-19T08:39:32.459Z,7.50
2019-02-19T08:42:03.052Z,7.50
2019-02-19T08:44:33.956Z,7.50
2019-02-19T08:47:04.529Z,7.50
2019-02-19T08:49:35.070Z,7.60
2019-02-19T08:52:05.687Z,7.60
2019-02-19T08:54:36.143Z,7.60
2019-02-19T08:57:06.683Z,7.70
2019-02-19T08:59:37.231Z,7.80
2019-02-19T09:02:07.906Z,7.80
2019-02-19T09:04:38.743Z,7.90
2019-02-19T09:07:09.407Z,7.90
2019-02-19T09:09:39.859Z,7.90
2019-02-19T09:12:11.627Z,8.00
2019-02-19T09:14:42.146Z,8.00
2019-02-19T09:17:12.712Z,8.00
2019-02-19T09:19:43.503Z,7.80
2019-02-19T09:22:14.095Z,7.80
2019-02-19T09:24:44.575Z,7.80
2019-02-19T09:27:15.112Z,7.80
2019-02-19T09:29:47.527Z,7.80
2019-02-19T09:32:18.146Z,7.70
2019-02-19T09:34:48.731Z,7.80
2019-02-19T09:37:19.692Z,7.80
2019-02-19T09:39:50.166Z,8.00
2019-02-19T09:42:20.750Z,7.90
2019-02-19T09:44:51.276Z,7.90
2019-02-19T09:47:21.927Z,7.90
2019-02-19T09:49:52.771Z,7.80
2019-02-19T09:52:23.325Z,8.00
2019-02-19T09:54:53.803Z,8.10
2019-02-19T09:57:24.447Z,8.10
2019-02-19T09:59:54.980Z,8.10
2019-02-19T10:02:26.056Z,8.20
2019-02-19T10:04:56.960Z,8.00
2019-02-19T10:07:28.076Z,7.90
2019-02-19T10:09:58.920Z,7.80
2019-02-19T10:12:29.562Z,8.00
2019-02-19T10:15:00.373Z,8.00
2019-02-19T10:17:30.920Z,8.00
2019-02-19T10:20:01.381Z,8.00
2019-02-19T10:22:31.849Z,8.00
2019-02-19T10:25:02.773Z,8.20
2019-02-19T10:27:33.314Z,8.30
2019-02-19T10:30:03.865Z,8.30
2019-02-19T10:32:34.424Z,8.30
2019-02-19T10:35:05.312Z,8.50
2019-02-19T10:37:35.819Z,8.50
2019-02-19T10:40:06.980Z,8.60
2019-02-19T10:42:37.890Z,8.80
2019-02-19T10:45:11.572Z,8.80
2019-02-19T10:47:42.176Z,8.70
2019-02-19T10:50:12.727Z,9.00
2019-02-19T10:52:43.325Z,9.40
2019-02-19T10:55:13.887Z,9.50
2019-02-19T10:57:44.583Z,9.20
2019-02-19T11:00:17.869Z,9.00
2019-02-19T11:02:48.960Z,9.00
2019-02-19T11:05:20.390Z,8.80
2019-02-19T11:07:51.006Z,8.70
2019-02-19T11:10:21.551Z,8.40
2019-02-19T11:12:52.495Z,8.20
2019-02-19T11:15:23.025Z,8.10
2019-02-19T11:17:53.861Z,8.00
2019-02-19T11:20:24.518Z,8.00
2019-02-19T11:22:55.095Z,7.90
2019-02-19T11:25:25.953Z,7.80
2019-02-19T11:27:56.844Z,7.70
2019-02-19T11:30:27.655Z,7.70
2019-02-19T11:32:58.209Z,7.70
2019-02-19T11:35:28.697Z,7.70
2019-02-19T11:37:59.231Z,7.70
2019-02-19T11:40:29.778Z,7.60
2019-02-19T11:43:00.741Z,7.60
2019-02-19T11:45:31.273Z,7.60
2019-02-19T11:48:01.774Z,7.40
2019-02-19T11:50:32.223Z,7.40
2019-02-19T11:53:02.788Z,7.30
2019-02-19T11:55:33.292Z,7.30
2019-02-19T11:58:04.243Z,7.20
2019-02-19T12:00:37.488Z,7.20
2019-02-19T12:03:08.114Z,7.20
2019-02-19T12:05:38.624Z,7.30
2019-02-19T12:08:09.234Z,7.20
2019-02-19T12:10:39.760Z,7.10
2019-02-19T12:13:10.667Z,7.10
2019-02-19T12:15:41.195Z,7.10
2019-02-19T12:18:11.695Z,7.20
2019-02-19T12:20:42.203Z,7.20
2019-02-19T12:23:12.865Z,7.10
2019-02-19T12:25:43.321Z,7.10
2019-02-19T12:28:14.002Z,7.10
2019-02-19T12:30:44.607Z,7.10
2019-02-19T12:33:15.151Z,7.20
2019-02-19T12:35:45.759Z,7.00
2019-02-19T12:38:16.293Z,7.00
2019-02-19T12:40:46.938Z,7.00
2019-02-19T12:43:17.401Z,6.90
2019-02-19T12:45:47.976Z,6.90
2019-02-19T12:48:18.517Z,7.00
2019-02-19T12:50:49.145Z,7.00
2019-02-19T12:53:19.686Z,6.90
2019-02-19T12:55:50.342Z,7.10
2019-02-19T12:58:20.834Z,7.00
2019-02-19T13:00:51.392Z,7.10
2019-02-19T13:03:21.877Z,7.20
2019-02-19T13:05:52.542Z,7.10
2019-02-19T13:08:23.074Z,7.10
2019-02-19T13:10:53.611Z,7.10
2019-02-19T13:13:24.148Z,7.20
2019-02-19T13:15:54.988Z,7.20
2019-02-19T13:18:26.150Z,7.00
2019-02-19T13:20:56.682Z,7.20
2019-02-19T13:23:27.243Z,7.30
2019-02-19T13:25:58.149Z,7.50
2019-02-19T13:28:28.664Z,7.60
2019-02-19T13:30:59.237Z,7.60
2019-02-19T13:33:29.710Z,7.70
2019-02-19T13:36:00.226Z,7.70
2019-02-19T13:38:30.824Z,7.80
2019-02-19T13:41:01.436Z,7.80
2019-02-19T13:43:31.912Z,7.80
2019-02-19T13:46:02.900Z,7.80
2019-02-19T13:48:33.544Z,7.80
2019-02-19T13:51:05.175Z,7.80
2019-02-19T13:53:43.205Z,8.10
2019-02-19T13:56:13.735Z,8.20
2019-02-19T13:58:44.346Z,8.50
2019-02-19T14:01:15.162Z,8.80
2019-02-19T14:03:46.121Z,9.20
2019-02-19T14:06:16.659Z,9.40
2019-02-19T14:08:47.308Z,9.00
2019-02-19T14:11:17.873Z,9.20
2019-02-19T14:13:57.082Z,10.30
2019-02-19T14:16:36.087Z,11.00
2019-02-19T14:19:22.979Z,11.10
2019-02-19T14:22:06.024Z,11.70
2019-02-19T14:24:54.653Z,12.00
2019-02-19T14:27:59.719Z,10.70
2019-02-19T14:30:47.592Z,11.80
2019-02-19T14:33:48.637Z,12.80
2019-02-19T14:36:22.906Z,13.10
2019-02-19T14:39:24.782Z,11.70
2019-02-19T14:42:20.378Z,11.50
2019-02-19T14:45:09.804Z,10.30
2019-02-19T14:47:58.079Z,9.70
2019-02-19T14:50:59.649Z,9.90
2019-02-19T14:53:48.298Z,10.10
2019-02-19T14:56:36.405Z,11.20
2019-02-19T14:59:35.248Z,11.30
2019-02-19T15:02:24.796Z,11.80
2019-02-19T15:05:24.408Z,10.60
2019-02-19T15:08:16.975Z,10.90
2019-02-19T15:11:09.883Z,11.10
2019-02-19T15:13:51.293Z,10.20
2019-02-19T15:16:59.331Z,9.70
2019-02-19T15:19:54.423Z,9.50
2019-02-19T15:22:39.186Z,9.20
2019-02-19T15:25:28.648Z,9.20
2019-02-19T15:28:33.505Z,8.90
2019-02-19T15:31:23.145Z,9.10
2019-02-19T15:34:04.538Z,9.10
2019-02-19T15:36:54.063Z,10.10
2019-02-19T15:39:49.650Z,10.00
2019-02-19T15:42:39.105Z,9.50
2019-02-19T15:45:18.534Z,9.20
2019-02-19T15:48:08.079Z,9.20
2019-02-19T15:50:56.499Z,8.90
2019-02-19T15:53:46.328Z,8.80
2019-02-19T15:56:32.235Z,8.80
2019-02-19T15:59:12.068Z,8.70
2019-02-19T16:02:01.590Z,8.70
2019-02-19T16:05:09.163Z,8.60
2019-02-19T16:07:58.692Z,8.60
2019-02-19T16:10:50.768Z,8.50
2019-02-19T16:13:55.612Z,8.50
2019-02-19T16:16:42.910Z,8.30
2019-02-19T16:19:38.850Z,8.30
2019-02-19T16:22:28.853Z,8.30
2019-02-19T16:25:16.934Z,8.30
2019-02-19T16:28:18.534Z,8.30
2019-02-19T16:30:58.687Z,8.20
2019-02-19T16:33:47.337Z,8.20
2019-02-19T16:36:40.265Z,8.10
2019-02-19T16:39:39.194Z,8.00
2019-02-19T16:42:26.074Z,8.00
2019-02-19T16:45:07.692Z,8.00
2019-02-19T16:48:12.356Z,7.90
2019-02-19T16:51:13.984Z,7.80
2019-02-19T16:54:09.535Z,7.80
2019-02-19T16:57:14.155Z,7.70
2019-02-19T16:59:56.219Z,7.70
2019-02-19T17:02:40.867Z,7.60
2019-02-19T17:05:30.410Z,7.50
2019-02-19T17:08:13.154Z,7.40
2019-02-19T17:11:17.150Z,7.30
2019-02-19T17:14:06.779Z,7.20
2019-02-19T17:17:02.582Z,7.30
2019-02-19T17:19:50.774Z,7.20
2019-02-19T17:22:58.438Z,7.20
2019-02-19T17:25:46.632Z,7.10
2019-02-19T17:28:54.281Z,7.10
2019-02-19T17:31:50.154Z,7.10
2019-02-19T17:34:54.930Z,7.10
2019-02-19T17:37:50.791Z,7.10
2019-02-19T17:40:28.334Z,7.00
2019-02-19T17:43:04.165Z,7.10
2019-02-19T17:45:55.594Z,7.00
2019-02-19T17:48:54.712Z,6.90
2019-02-19T17:51:38.328Z,6.90
2019-02-19T17:54:36.934Z,6.70
2019-02-19T17:57:17.700Z,6.60
2019-02-19T18:00:07.188Z,6.60
2019-02-19T18:03:00.069Z,6.50
2019-02-19T18:05:49.513Z,6.50
2019-02-19T18:08:37.514Z,6.50
2019-02-19T18:11:27.364Z,6.40
2019-02-19T18:14:29.286Z,6.40
2019-02-19T18:17:17.456Z,6.40
2019-02-19T18:19:48.060Z,6.50
2019-02-19T18:22:18.965Z,6.50
2019-02-19T18:24:49.454Z,6.40
2019-02-19T18:27:19.925Z,6.40
2019-02-19T18:29:50.460Z,6.30
2019-02-19T18:32:21.012Z,6.40
2019-02-19T18:34:51.639Z,6.30
2019-02-19T18:37:22.181Z,6.40
2019-02-19T18:39:52.730Z,6.40
2019-02-19T18:42:23.814Z,6.40
2019-02-19T18:44:54.643Z,6.40
2019-02-19T18:47:25.124Z,6.30
2019-02-19T18:49:55.677Z,6.30
2019-02-19T18:52:26.194Z,6.30
2019-02-19T18:54:56.730Z,6.30
2019-02-19T18:57:27.311Z,6.30
2019-02-19T18:59:57.950Z,6.30
2019-02-19T19:02:28.465Z,6.20
2019-02-19T19:04:59.627Z,6.20
2019-02-19T19:07:30.132Z,6.10
2019-02-19T19:10:00.710Z,6.20
2019-02-19T19:12:31.208Z,6.10
2019-02-19T19:15:01.857Z,6.10
2019-02-19T19:17:32.363Z,6.10
2019-02-19T19:20:03.010Z,6.10
2019-02-19T19:22:33.879Z,6.10
2019-02-19T19:25:04.597Z,6.10
2019-02-19T19:27:35.208Z,6.10
2019-02-19T19:30:06.841Z,6.00
2019-02-19T19:32:37.590Z,5.90
2019-02-19T19:35:09.426Z,6.00
2019-02-19T19:37:40.247Z,6.00
2019-02-19T19:40:10.954Z,6.00
2019-02-19T19:42:41.853Z,6.10
2019-02-19T19:45:12.614Z,6.10
2019-02-19T19:47:43.278Z,5.90
2019-02-19T19:50:13.846Z,6.00
2019-02-19T19:52:44.481Z,5.90
2019-02-19T19:55:14.966Z,5.90
2019-02-19T19:57:45.484Z,5.80
2019-02-19T20:00:16.038Z,5.70
2019-02-19T20:02:46.520Z,5.60
2019-02-19T20:05:17.071Z,5.60
2019-02-19T20:07:47.578Z,5.50
2019-02-19T20:10:18.029Z,5.50
2019-02-19T20:12:48.842Z,5.50
2019-02-19T20:15:19.470Z,5.60
2019-02-19T20:17:49.972Z,5.60
2019-02-19T20:20:20.528Z,5.70
2019-02-19T20:22:51.056Z,5.70
2019-02-19T20:25:21.610Z,5.60
2019-02-19T20:27:52.063Z,5.50
2019-02-19T20:30:22.539Z,5.50
2019-02-19T20:32:53.392Z,5.50
2019-02-19T20:35:23.925Z,5.40
2019-02-19T20:37:54.442Z,5.40
2019-02-19T20:40:24.990Z,5.40
2019-02-19T20:42:55.575Z,5.40
2019-02-19T20:45:26.105Z,5.30
2019-02-19T20:47:56.724Z,5.30
2019-02-19T20:50:27.525Z,5.30
2019-02-19T20:52:58.370Z,5.40
2019-02-19T20:55:36.741Z,5.30
2019-02-19T20:58:01.160Z,5.20
2019-02-19T21:00:31.701Z,5.20
2019-02-19T21:03:02.247Z,5.30
2019-02-19T21:05:33.018Z,5.20
2019-02-19T21:08:03.635Z,5.20
2019-02-19T21:10:34.174Z,5.20
2019-02-19T21:13:04.803Z,5.10
2019-02-19T21:15:35.681Z,5.00
2019-02-19T21:18:06.235Z,5.10
2019-02-19T21:20:36.751Z,5.10
2019-02-19T21:23:07.405Z,5.10
2019-02-19T21:25:37.928Z,5.10
2019-02-19T21:28:08.457Z,5.20
2019-02-19T21:30:38.985Z,5.20
2019-02-19T21:33:09.558Z,5.10
2019-02-19T21:35:40.095Z,5.20
2019-02-19T21:38:10.724Z,5.20
2019-02-19T21:40:41.269Z,5.10
2019-02-19T21:43:11.813Z,5.10
2019-02-19T21:45:42.786Z,5.10
2019-02-19T21:48:13.414Z,5.10
2019-02-19T21:50:43.948Z,5.10
2019-02-19T21:53:14.568Z,5.10
2019-02-19T21:55:45.049Z,5.10
2019-02-19T21:58:15.622Z,5.10
2019-02-19T22:00:46.453Z,5.00
2019-02-19T22:03:17.025Z,5.10
2019-02-19T22:05:47.476Z,5.00
2019-02-19T22:08:17.968Z,5.00
2019-02-19T22:10:48.354Z,5.00
2019-02-19T22:13:18.915Z,4.90
2019-02-19T22:15:49.746Z,4.90
2019-02-19T22:18:20.380Z,4.80
2019-02-19T22:21:02.297Z,4.90
2019-02-19T22:23:32.827Z,4.90
2019-02-19T22:26:03.357Z,4.90
2019-02-19T22:28:34.214Z,4.90
2019-02-19T22:31:04.764Z,4.90
2019-02-19T22:33:35.348Z,4.90
2019-02-19T22:36:05.920Z,5.00
2019-02-19T22:38:36.454Z,5.00
2019-02-19T22:41:07.420Z,5.10
2019-02-19T22:43:38.223Z,5.00
2019-02-19T22:46:08.760Z,4.90
2019-02-19T22:48:39.407Z,5.00
2019-02-19T22:51:09.878Z,5.00
2019-02-19T22:53:47.810Z,4.90
2019-02-19T22:56:43.232Z,5.00
2019-02-19T22:59:13.766Z,5.10
2019-02-19T23:02:11.196Z,5.10
2019-02-19T23:04:41.798Z,5.10
2019-02-19T23:07:12.667Z,5.10
2019-02-19T23:09:43.231Z,5.10
2019-02-19T23:12:13.784Z,5.10
2019-02-19T23:14:44.394Z,5.10
2019-02-19T23:17:14.873Z,5.20
2019-02-19T23:19:45.446Z,5.20
2019-02-19T23:22:21.523Z,5.10
2019-02-19T23:24:48.152Z,5.10
2019-02-19T23:27:19.145Z,5.10
2019-02-19T23:29:49.626Z,5.10
2019-02-19T23:32:20.459Z,5.10
2019-02-19T23:35:09.855Z,5.00
2019-02-19T23:37:40.383Z,5.00
2019-02-19T23:40:10.933Z,5.10
2019-02-19T23:42:41.502Z,5.00
2019-02-19T23:45:12.073Z,5.00
2019-02-19T23:47:42.591Z,4.90
2019-02-19T23:50:13.121Z,4.90
2019-02-19T23:52:43.657Z,4.90
2019-02-19T23:55:14.621Z,4.90
2019-02-19T23:57:45.146Z,4.80
